Time;durP1;ratioP1;P1;durP2;ratioP2;P2;SDS_P1;SDS_P2;PMS_P1;PMS_P2;Temp;Humidity;BMP_temperature;BMP_pressure;BME280_temperature;BME280_humidity;BME280_pressure;Samples;Min_cycle;Max_cycle;Signal;HPM_P1;HPM_P2
2023/09/12 00:03:06;;;;;;;5.30;2.83;;;;;;;24.62;50.24;101237.38;16123522;19;131079;-57
2023/09/12 00:08:28;;;;;;;3.42;2.90;;;;;;;24.60;50.11;101243.25;16124405;19;130035;-59
2023/09/12 00:13:50;;;;;;;4.07;2.80;;;;;;;24.60;50.39;101239.66;16122688;19;130481;-59
2023/09/12 00:19:12;;;;;;;4.22;3.13;;;;;;;24.58;50.36;101226.78;16124952;19;129929;-59
2023/09/12 00:24:35;;;;;;;4.25;2.85;;;;;;;24.58;50.24;101231.50;16122809;19;129639;-59
2023/09/12 00:29:57;;;;;;;4.15;2.47;;;;;;;24.57;50.20;101230.69;16123694;19;129648;-59
2023/09/12 00:35:18;;;;;;;4.20;3.00;;;;;;;24.56;50.58;101231.81;16123735;19;130255;-59
2023/09/12 00:40:40;;;;;;;3.13;2.58;;;;;;;24.55;50.11;101232.91;16119303;19;130061;-58
2023/09/12 00:46:02;;;;;;;3.65;3.17;;;;;;;24.53;50.47;101239.91;16121922;19;130058;-59
2023/09/12 00:51:25;;;;;;;2.47;2.17;;;;;;;24.53;50.05;101239.91;16123453;19;130234;-59
2023/09/12 00:56:48;;;;;;;2.53;2.33;;;;;;;24.52;50.23;101225.09;16124550;19;129828;-60
2023/09/12 01:02:10;;;;;;;3.47;2.28;;;;;;;24.51;50.56;101220.59;16118976;19;133644;-59
2023/09/12 01:07:32;;;;;;;2.75;2.53;;;;;;;24.51;50.24;101220.59;16119202;19;129263;-58
2023/09/12 01:12:54;;;;;;;3.80;2.65;;;;;;;24.49;50.46;101217.28;16118945;19;129924;-59
2023/09/12 01:18:16;;;;;;;3.90;2.70;;;;;;;24.48;50.22;101221.19;16119706;19;129611;-59
2023/09/12 01:23:50;;;;;;;2.17;1.98;;;;;;;24.48;50.17;101220.31;16119019;19;131086;-58
2023/09/12 01:29:13;;;;;;;2.60;2.30;;;;;;;24.46;50.51;101220.63;16118970;19;130770;-59
2023/09/12 01:34:35;;;;;;;3.28;2.30;;;;;;;24.47;50.50;101215.84;16117849;19;129294;-59
2023/09/12 01:39:58;;;;;;;3.35;2.17;;;;;;;24.46;50.53;101217.81;16115749;19;131097;-60
2023/09/12 01:45:20;;;;;;;3.67;1.98;;;;;;;24.45;50.47;101226.47;16118684;19;129846;-60
2023/09/12 01:50:45;;;;;;;4.22;2.00;;;;;;;24.44;50.12;101228.44;16117311;19;130893;-64
2023/09/12 01:56:07;;;;;;;2.50;1.98;;;;;;;24.44;50.40;101231.25;16119896;19;130454;-59
2023/09/12 02:01:29;;;;;;;7.05;2.03;;;;;;;24.42;50.43;101228.72;16116905;19;130343;-59
2023/09/12 02:06:51;;;;;;;2.40;2.10;;;;;;;24.42;50.48;101216.69;16117688;19;130167;-59
2023/09/12 02:12:13;;;;;;;4.15;2.13;;;;;;;24.42;50.44;101199.91;16115776;19;129813;-61
2023/09/12 02:17:35;;;;;;;2.38;2.08;;;;;;;24.42;50.46;101202.72;16116513;19;129763;-60
2023/09/12 02:22:57;;;;;;;3.05;2.38;;;;;;;24.42;50.09;101199.91;16118462;19;130663;-61
2023/09/12 02:28:19;;;;;;;2.67;2.10;;;;;;;24.41;50.15;101206.63;16113780;19;130820;-60
2023/09/12 02:33:42;;;;;;;4.60;2.13;;;;;;;24.41;50.48;101212.22;16116741;19;130418;-61
2023/09/12 02:39:04;;;;;;;2.55;2.30;;;;;;;24.42;50.13;101202.72;16118266;19;129897;-61
2023/09/12 02:44:26;;;;;;;2.35;1.98;;;;;;;24.41;50.17;101204.69;16113283;19;130659;-59
2023/09/12 02:49:48;;;;;;;2.47;1.95;;;;;;;24.41;50.10;101189.84;16106863;19;132998;-59
2023/09/12 02:55:10;;;;;;;2.65;2.25;;;;;;;24.40;50.31;101193.75;16112848;19;130443;-59
2023/09/12 03:00:33;;;;;;;2.72;2.08;;;;;;;24.38;50.28;101188.47;16112455;19;129657;-59
2023/09/12 03:05:59;;;;;;;2.97;2.30;;;;;;;24.38;50.05;101202.44;16112205;19;129847;-59
2023/09/12 03:11:21;;;;;;;2.75;1.77;;;;;;;24.37;50.30;101211.13;16107462;19;130903;-59
2023/09/12 03:16:43;;;;;;;2.78;2.08;;;;;;;24.36;50.16;101201.06;16106696;19;130595;-58
2023/09/12 03:22:04;;;;;;;1.90;1.60;;;;;;;24.35;50.45;101202.16;16111653;19;130855;-59
2023/09/12 03:27:27;;;;;;;1.70;1.60;;;;;;;24.35;50.53;101210.56;16110362;19;131321;-59
2023/09/12 03:32:48;;;;;;;2.80;1.63;;;;;;;24.34;50.21;101214.47;16109388;19;130450;-59
2023/09/12 03:38:10;;;;;;;2.65;2.00;;;;;;;24.33;50.44;101218.38;16114227;19;130038;-59
2023/09/12 03:43:33;;;;;;;2.42;1.90;;;;;;;24.33;50.60;101210.00;16107223;19;130808;-59
2023/09/12 03:48:55;;;;;;;2.42;1.92;;;;;;;24.33;50.44;101210.00;16110849;19;130639;-59
2023/09/12 03:54:17;;;;;;;2.55;2.08;;;;;;;24.31;50.01;101210.25;16104862;19;130718;-59
2023/09/12 03:59:39;;;;;;;2.50;1.88;;;;;;;24.31;50.40;101209.41;16108110;19;130898;-59
2023/09/12 04:05:01;;;;;;;1.90;1.60;;;;;;;24.30;50.42;101207.75;16108569;19;130763;-59
2023/09/12 04:10:23;;;;;;;1.75;1.65;;;;;;;24.29;50.41;101211.66;16105675;19;130539;-59
2023/09/12 04:15:45;;;;;;;2.55;1.73;;;;;;;24.27;50.44;101209.97;16107198;19;131219;-59
2023/09/12 04:21:07;;;;;;;2.28;1.70;;;;;;;24.27;50.44;101193.19;16113631;19;130879;-60
2023/09/12 04:26:29;;;;;;;2.92;1.95;;;;;;;24.26;50.44;101185.91;16111713;19;130771;-60
2023/09/12 04:31:52;;;;;;;3.25;1.92;;;;;;;24.25;50.39;101178.66;16108225;19;134683;-60
2023/09/12 04:37:14;;;;;;;2.17;1.80;;;;;;;24.25;50.27;101167.47;16110322;19;129683;-64
2023/09/12 04:42:36;;;;;;;3.00;1.88;;;;;;;24.23;50.34;101164.09;16116528;19;131013;-62
2023/09/12 04:47:58;;;;;;;2.92;1.88;;;;;;;24.24;50.07;101159.34;16118725;19;129484;-61
2023/09/12 04:53:20;;;;;;;2.60;1.67;;;;;;;24.22;50.42;101151.25;16121621;19;129563;-62
2023/09/12 04:58:42;;;;;;;3.15;1.90;;;;;;;24.22;50.40;101145.66;16123048;19;129633;-66
2023/09/12 05:04:04;;;;;;;2.03;1.83;;;;;;;24.21;50.25;101137.53;16120217;19;130993;-67
2023/09/12 05:09:26;;;;;;;2.25;1.90;;;;;;;24.21;50.02;101148.72;16120276;19;130704;-60
2023/09/12 05:14:48;;;;;;;2.78;1.90;;;;;;;24.20;50.44;101155.41;16118236;19;129976;-60
2023/09/12 05:20:10;;;;;;;10.80;4.50;;;;;;;24.18;50.05;101166.88;16118865;19;130126;-58
2023/09/12 05:25:32;;;;;;;17.90;8.50;;;;;;;24.10;49.79;101171.06;16121453;19;131283;-57
2023/09/12 05:30:55;;;;;;;16.08;10.02;;;;;;;24.04;49.17;101171.34;16123396;19;129432;-58
2023/09/12 05:36:17;;;;;;;18.88;10.82;;;;;;;23.95;49.04;101171.91;16119470;19;131317;-67
2023/09/12 05:41:40;;;;;;;15.77;9.82;;;;;;;23.90;49.46;101171.88;16111944;19;131823;-62
2023/09/12 05:47:02;;;;;;;13.73;8.60;;;;;;;23.90;49.53;101174.66;16114216;19;130259;-58
2023/09/12 05:52:23;;;;;;;10.20;7.47;;;;;;;23.93;49.62;101187.28;16118511;19;129814;-58
2023/09/12 05:57:47;;;;;;;12.95;7.22;;;;;;;23.96;49.29;101193.13;16116675;19;131273;-59
2023/09/12 06:03:09;;;;;;;9.35;6.28;;;;;;;24.00;49.46;101206.56;16116092;19;130473;-58
2023/09/12 06:08:32;;;;;;;9.65;5.07;;;;;;;24.01;49.35;101211.88;16114109;19;130604;-58
2023/09/12 06:13:54;;;;;;;11.52;5.70;;;;;;;24.03;49.31;101214.38;16114484;19;131169;-58
2023/09/12 06:19:19;;;;;;;8.90;5.65;;;;;;;24.03;49.36;101219.97;16115989;19;130201;-59
2023/09/12 06:24:41;;;;;;;6.68;4.70;;;;;;;24.05;49.17;101228.91;16116989;19;129571;-61
2023/09/12 06:30:03;;;;;;;10.10;4.30;;;;;;;24.06;48.96;101217.44;16118556;19;129056;-62
2023/09/12 06:35:26;;;;;;;6.30;4.72;;;;;;;24.08;49.12;101209.63;16117734;19;130357;-63
2023/09/12 06:40:48;;;;;;;8.93;4.05;;;;;;;24.12;49.05;101209.94;16117901;19;129077;-62
2023/09/12 06:46:10;;;;;;;8.48;4.50;;;;;;;24.17;48.92;101218.31;16119223;19;130669;-60
2023/09/12 06:51:32;;;;;;;6.38;3.80;;;;;;;24.21;49.11;101213.88;16117046;19;129863;-59
2023/09/12 06:56:58;;;;;;;5.15;4.07;;;;;;;24.23;49.29;101220.03;16116742;19;130537;-60
2023/09/12 07:02:21;;;;;;;9.85;3.78;;;;;;;24.27;48.96;101204.38;16118405;19;129630;-60
2023/09/12 07:07:43;;;;;;;8.25;4.18;;;;;;;24.29;49.26;101201.31;16112418;19;129822;-60
2023/09/12 07:13:05;;;;;;;6.35;4.05;;;;;;;24.35;49.31;101208.59;16110844;19;129722;-60
2023/09/12 07:18:27;;;;;;;5.28;3.33;;;;;;;24.40;49.50;101213.34;16114924;19;130480;-60
2023/09/12 07:23:50;;;;;;;7.45;3.40;;;;;;;24.45;49.78;101210.53;16108727;19;131716;-60
2023/09/12 07:29:12;;;;;;;7.47;3.13;;;;;;;24.49;49.58;101222.88;16108325;19;129521;-60
2023/09/12 07:34:34;;;;;;;8.23;3.47;;;;;;;24.54;50.16;101233.22;16107218;19;129956;-60
2023/09/12 07:39:56;;;;;;;5.10;3.40;;;;;;;24.57;50.27;101246.63;16112260;19;129530;-62
2023/09/12 07:45:20;;;;;;;14.25;4.00;;;;;;;24.60;50.29;101240.47;16113808;19;130056;-61
2023/09/12 07:50:42;;;;;;;11.00;3.90;;;;;;;24.64;50.41;101250.00;16162813;19;129206;-58
2023/09/12 07:56:04;;;;;;;10.73;5.63;;;;;;;24.65;50.35;101250.81;16177475;19;128860;-60
2023/09/12 08:01:27;;;;;;;8.68;5.55;;;;;;;24.66;50.89;101249.69;16178775;19;128943;-60
2023/09/12 08:06:49;;;;;;;8.20;5.20;;;;;;;24.65;50.87;101267.59;16185581;19;129286;-60
2023/09/12 08:12:21;;;;;;;9.23;5.55;;;;;;;24.64;50.66;101251.94;16188440;19;129479;-60
2023/09/12 08:17:43;;;;;;;16.47;6.47;;;;;;;24.64;50.80;101263.13;16206434;19;129111;-60
2023/09/12 08:23:05;;;;;;;11.30;6.57;;;;;;;24.65;51.13;101273.19;16206572;19;130117;-59
2023/09/12 08:28:27;;;;;;;9.45;6.60;;;;;;;24.70;50.80;101262.84;16208283;19;128515;-59
2023/09/12 08:33:49;;;;;;;9.18;6.38;;;;;;;24.74;50.84;101260.31;16186684;19;129068;-61
2023/09/12 08:39:14;;;;;;;10.60;6.63;;;;;;;24.75;51.08;101253.59;16154603;19;133346;-60
2023/09/12 08:44:39;;;;;;;10.77;6.78;;;;;;;24.73;51.41;101258.66;16150001;19;129535;-60
2023/09/12 08:50:03;;;;;;;11.32;7.13;;;;;;;24.73;51.52;101255.88;16147991;19;130262;-60
2023/09/12 08:55:25;;;;;;;11.95;7.55;;;;;;;24.76;51.21;101263.69;16146015;19;129875;-60
2023/09/12 09:00:47;;;;;;;9.82;7.05;;;;;;;24.76;51.66;101246.88;16138588;19;129660;-60
2023/09/12 09:06:10;;;;;;;12.35;7.28;;;;;;;24.77;51.56;101248.56;16121613;19;129740;-60
2023/09/12 09:11:35;;;;;;;13.45;7.35;;;;;;;24.80;51.42;101256.41;16122857;19;129753;-60
2023/09/12 09:16:58;;;;;;;15.13;8.25;;;;;;;24.79;51.91;101251.94;16122894;19;129711;-60
2023/09/12 09:22:20;;;;;;;12.75;7.25;;;;;;;24.79;51.55;101245.50;16122105;19;129724;-59
2023/09/12 09:27:42;;;;;;;14.68;6.55;;;;;;;24.76;52.23;101249.69;16120324;19;129597;-60
2023/09/12 09:33:04;;;;;;;10.75;6.70;;;;;;;24.75;52.05;101238.78;16121396;19;130796;-60
2023/09/12 09:38:26;;;;;;;14.85;6.95;;;;;;;24.75;51.95;101231.22;16122685;19;130717;-60
2023/09/12 09:43:51;;;;;;;12.50;7.57;;;;;;;24.77;51.98;101233.75;16121752;19;129541;-60
2023/09/12 09:49:19;;;;;;;16.27;7.50;;;;;;;24.79;52.30;101243.53;16121142;19;129832;-61
2023/09/12 09:54:45;;;;;;;12.40;7.03;;;;;;;24.76;52.05;101234.88;16120970;19;130044;-61
2023/09/12 10:00:14;;;;;;;9.95;7.18;;;;;;;24.73;52.03;101244.69;16121306;19;130786;-62
2023/09/12 10:05:37;;;;;;;11.02;7.05;;;;;;;24.70;52.00;101239.63;16119593;19;129575;-61
2023/09/12 10:10:59;;;;;;;12.60;7.47;;;;;;;24.68;52.42;101248.28;16124245;19;130537;-61
2023/09/12 10:16:25;;;;;;;11.25;6.95;;;;;;;24.69;52.28;101254.75;16122090;19;129435;-65
2023/09/12 10:21:52;;;;;;;7.93;6.10;;;;;;;24.69;52.28;101243.56;16123815;19;130049;-64
2023/09/12 10:27:15;;;;;;;11.52;6.38;;;;;;;24.67;52.33;101240.19;16119479;19;130417;-62
2023/09/12 10:32:40;;;;;;;11.10;6.40;;;;;;;24.67;52.55;101240.19;16122191;19;129992;-62
2023/09/12 10:38:04;;;;;;;9.85;6.45;;;;;;;24.65;52.51;101236.81;16118280;19;130319;-61
2023/09/12 10:43:28;;;;;;;8.65;5.35;;;;;;;24.64;52.43;101230.41;16116351;19;129185;-62
2023/09/12 10:48:51;;;;;;;9.25;5.85;;;;;;;24.63;52.74;101239.91;16118116;19;130356;-61
2023/09/12 10:54:39;;;;;;;7.20;5.50;;;;;;;24.62;52.44;101241.03;16117782;19;130045;-61
2023/09/12 11:00:08;;;;;;;10.57;5.70;;;;;;;24.62;52.86;101231.78;16116753;19;130765;-62
2023/09/12 11:05:31;;;;;;;8.23;5.40;;;;;;;24.61;52.80;101236.56;16119261;19;129739;-61
2023/09/12 11:11:28;;;;;;;7.05;5.90;;;;;;;24.59;52.87;101230.41;16121975;19;130438;-62
2023/09/12 11:17:08;;;;;;;7.22;5.80;;;;;;;24.62;53.05;101234.56;16111973;19;130948;-62
2023/09/12 11:22:31;;;;;;;7.10;5.55;;;;;;;24.59;53.09;101230.41;16102991;19;130797;-62
2023/09/12 11:27:53;;;;;;;5.97;4.85;;;;;;;24.60;52.97;101231.25;16100056;19;129646;-62
2023/09/12 11:33:16;;;;;;;7.18;5.32;;;;;;;24.58;53.18;101226.78;16097829;19;129758;-62
2023/09/12 11:38:38;;;;;;;6.55;4.93;;;;;;;24.58;53.11;101226.78;16099610;19;129918;-62
2023/09/12 11:44:03;;;;;;;6.30;4.70;;;;;;;24.58;53.41;101229.56;16104278;19;130733;-62
2023/09/12 11:49:25;;;;;;;;;;;;;;;24.55;53.48;101230.13;16115062;19;129097;-61
2023/09/12 11:54:47;;;;;;;7.97;4.85;;;;;;;24.58;53.66;101223.97;16129699;19;130786;-62
2023/09/12 12:00:11;;;;;;;5.88;4.88;;;;;;;24.56;53.60;101217.81;16132707;19;130738;-62
2023/09/12 12:05:34;;;;;;;5.00;4.50;;;;;;;24.56;53.65;101216.97;16128706;19;129699;-62
2023/09/12 12:11:00;;;;;;;5.60;4.97;;;;;;;24.55;54.02;101210.53;16127230;19;129755;-62
2023/09/12 12:16:22;;;;;;;5.57;4.75;;;;;;;24.56;53.77;101212.22;16129663;19;130114;-60
2023/09/12 12:21:47;;;;;;;6.80;4.75;;;;;;;24.56;53.79;101212.22;16126177;19;132517;-61
2023/09/12 12:27:11;;;;;;;7.20;4.70;;;;;;;24.56;53.81;101212.22;16127295;19;130103;-62
2023/09/12 12:32:33;;;;;;;6.35;5.05;;;;;;;24.55;53.65;101210.53;16125847;19;131596;-61
2023/09/12 12:37:56;;;;;;;6.90;4.47;;;;;;;24.55;53.82;101193.75;16122644;19;131085;-62
2023/09/12 12:43:27;;;;;;;5.63;4.45;;;;;;;24.56;54.01;101194.59;16124871;19;130625;-62
2023/09/12 12:48:50;;;;;;;5.55;4.55;;;;;;;24.55;53.85;101188.16;16124079;19;130579;-63
2023/09/12 12:54:12;;;;;;;6.28;4.80;;;;;;;24.55;53.95;101179.78;16124872;19;131650;-61
2023/09/12 12:59:36;;;;;;;5.25;4.75;;;;;;;24.54;54.14;101180.06;16123126;19;130765;-61
2023/09/12 13:04:58;;;;;;;7.35;4.55;;;;;;;24.53;54.22;101168.03;16117760;19;129942;-62
2023/09/12 13:10:21;;;;;;;5.88;5.00;;;;;;;24.52;54.31;101160.75;16122478;19;129890;-60
2023/09/12 13:15:43;;;;;;;5.25;4.47;;;;;;;24.51;53.72;101159.06;16119966;19;130240;-61
2023/09/12 13:21:06;;;;;;;7.65;4.82;;;;;;;24.52;53.49;101146.78;16120489;19;130909;-59
2023/09/12 13:26:28;;;;;;;8.23;4.90;;;;;;;24.52;53.58;101157.97;16121498;19;129697;-61
2023/09/12 13:31:50;;;;;;;6.53;5.18;;;;;;;24.55;53.25;101168.59;16124237;19;129908;-60
2023/09/12 13:37:12;;;;;;;6.85;5.20;;;;;;;24.53;53.12;101162.44;16116641;19;130668;-62
2023/09/12 13:42:34;;;;;;;7.20;5.18;;;;;;;24.54;53.25;101155.72;16118387;19;130169;-60
2023/09/12 13:47:58;;;;;;;11.18;5.55;;;;;;;24.52;52.75;101149.56;16120976;19;130341;-62
2023/09/12 13:53:20;;;;;;;7.30;5.20;;;;;;;24.53;52.72;101144.81;16117665;19;130777;-61
2023/09/12 13:58:42;;;;;;;10.82;5.20;;;;;;;24.55;52.89;101140.63;16118842;19;130097;-61
2023/09/12 14:04:08;;;;;;;6.32;4.82;;;;;;;24.58;52.68;101142.84;16117964;19;129736;-62
2023/09/12 14:09:30;;;;;;;5.78;4.72;;;;;;;24.62;52.85;101147.88;16117277;19;131969;-61
2023/09/12 14:14:53;;;;;;;6.72;5.05;;;;;;;24.65;53.12;101147.31;16116488;19;130606;-62
2023/09/12 14:20:28;;;;;;;6.63;4.47;;;;;;;24.66;52.93;101146.19;16118656;19;129852;-59
2023/09/12 14:25:51;;;;;;;7.85;4.63;;;;;;;24.66;52.77;101146.19;16115247;19;129806;-61
2023/09/12 14:31:15;;;;;;;5.63;4.95;;;;;;;24.67;52.61;101153.47;16116843;19;129760;-62
2023/09/12 14:36:40;;;;;;;5.43;4.55;;;;;;;24.67;52.87;101145.94;16115120;19;129374;-62
2023/09/12 14:42:08;;;;;;;7.13;4.45;;;;;;;24.67;52.64;101139.47;16114244;19;129678;-61
2023/09/12 14:47:32;;;;;;;5.85;4.50;;;;;;;24.67;52.76;101142.28;16117566;19;129640;-59
2023/09/12 14:52:55;;;;;;;7.10;4.77;;;;;;;24.66;52.90;101132.19;16116159;19;131285;-60
2023/09/12 14:58:17;;;;;;;5.93;4.72;;;;;;;24.65;52.45;101122.13;16111496;19;130428;-59
2023/09/12 15:03:39;;;;;;;11.43;5.00;;;;;;;24.65;52.54;101127.72;16107805;19;129765;-60
2023/09/12 15:09:02;;;;;;;7.60;4.85;;;;;;;24.63;52.19;101118.78;16114191;19;130988;-61
2023/09/12 15:14:24;;;;;;;7.65;4.93;;;;;;;24.61;52.12;101121.88;16112470;19;129647;-61
2023/09/12 15:19:46;;;;;;;6.97;5.50;;;;;;;24.62;52.18;101120.75;16113933;19;134148;-63
2023/09/12 15:25:08;;;;;;;6.15;4.97;;;;;;;24.61;51.86;101115.44;16106293;19;131506;-61
2023/09/12 15:30:30;;;;;;;6.13;4.85;;;;;;;24.59;51.79;101126.91;16105422;19;129800;-62
2023/09/12 15:35:53;;;;;;;15.88;7.90;;;;;;;24.60;51.16;101127.75;16103847;19;130714;-62
2023/09/12 15:41:15;;;;;;;23.48;8.88;;;;;;;24.58;50.99;101133.63;16108005;19;129793;-63
2023/09/12 15:46:37;;;;;;;18.15;8.10;;;;;;;24.57;50.90;101113.22;16108289;19;129909;-60
2023/09/12 15:52:00;;;;;;;22.83;8.40;;;;;;;24.58;50.85;101114.88;16111524;19;132412;-61
2023/09/12 15:57:22;;;;;;;22.80;8.85;;;;;;;24.58;50.83;101128.03;16107999;19;131745;-61
2023/09/12 16:02:44;;;;;;;16.17;7.43;;;;;;;24.56;51.07;101145.09;16105686;19;129910;-61
2023/09/12 16:08:07;;;;;;;17.35;8.18;;;;;;;24.56;50.99;101136.69;16109897;19;130929;-60
2023/09/12 16:13:29;;;;;;;24.75;8.75;;;;;;;24.53;51.01;101126.06;16105103;19;130452;-62
2023/09/12 16:18:51;;;;;;;31.55;10.43;;;;;;;24.53;51.55;101136.44;16108056;19;130233;-60
2023/09/12 16:24:13;;;;;;;21.50;9.02;;;;;;;24.52;51.76;101143.97;16108786;19;129814;-60
2023/09/12 16:29:38;;;;;;;26.48;11.27;;;;;;;24.51;51.30;101147.88;16107414;19;129321;-62
2023/09/12 16:35:01;;;;;;;29.67;12.85;;;;;;;24.50;51.51;101149.00;16108602;19;129631;-60
2023/09/12 16:40:23;;;;;;;25.27;11.13;;;;;;;24.50;51.80;101151.81;16119122;19;129966;-60
2023/09/12 16:45:45;;;;;;;27.30;12.63;;;;;;;24.48;51.68;101142.88;16118467;19;131806;-60
2023/09/12 16:51:08;;;;;;;32.90;14.40;;;;;;;24.47;51.88;101141.19;16123152;19;129446;-60
2023/09/12 16:56:29;;;;;;;35.17;16.58;;;;;;;24.47;51.79;101138.41;16119868;19;129895;-61
2023/09/12 17:01:51;;;;;;;35.53;17.50;;;;;;;24.47;51.55;101131.94;16123289;19;129369;-60
2023/09/12 17:07:13;;;;;;;27.95;15.00;;;;;;;24.45;51.65;101143.44;16123061;19;129849;-61
2023/09/12 17:12:35;;;;;;;30.20;15.57;;;;;;;24.47;51.66;101155.19;16123593;19;131105;-60
2023/09/12 17:17:57;;;;;;;24.95;15.20;;;;;;;24.47;51.75;101148.72;16122362;19;130652;-60
2023/09/12 17:23:19;;;;;;;27.88;13.68;;;;;;;24.46;51.70;101147.91;16120585;19;130094;-62
2023/09/12 17:28:41;;;;;;;24.88;14.60;;;;;;;24.45;51.91;101150.97;16122170;19;130911;-61
2023/09/12 17:34:03;;;;;;;24.00;14.77;;;;;;;24.42;51.91;101152.38;16121233;19;130346;-59
2023/09/12 17:39:25;;;;;;;23.95;14.60;;;;;;;24.40;52.39;101146.22;16116883;19;130469;-61
2023/09/12 17:44:47;;;;;;;27.45;15.57;;;;;;;24.39;52.22;101155.72;16117727;19;131050;-60
2023/09/12 17:50:10;;;;;;;30.67;17.95;;;;;;;24.37;52.33;101158.00;16115464;19;130903;-60
2023/09/12 17:55:32;;;;;;;28.45;17.52;;;;;;;24.36;52.51;101156.31;16118587;19;129811;-60
2023/09/12 18:00:56;;;;;;;30.50;18.98;;;;;;;24.35;52.60;101158.25;16118829;19;131318;-60
2023/09/12 18:06:19;;;;;;;32.03;17.35;;;;;;;24.34;52.92;101164.13;16114915;19;130611;-61
2023/09/12 18:11:41;;;;;;;41.20;16.13;;;;;;;24.34;53.06;101181.72;16117869;19;131259;-59
2023/09/12 18:17:03;;;;;;;33.53;18.67;;;;;;;24.36;52.80;101184.28;16115220;19;131110;-59
2023/09/12 18:22:25;;;;;;;33.05;18.95;;;;;;;24.38;53.03;101199.66;16114036;19;131062;-60
2023/09/12 18:27:47;;;;;;;43.08;19.50;;;;;;;24.38;53.37;101207.16;16114756;19;129428;-59
2023/09/12 18:33:09;;;;;;;35.17;18.17;;;;;;;24.39;53.16;101217.25;16118331;19;129889;-58
2023/09/12 18:38:32;;;;;;;30.23;16.92;;;;;;;24.39;52.98;101218.09;16111999;19;131645;-61
2023/09/12 18:43:53;;;;;;;31.42;17.90;;;;;;;24.40;53.10;101218.94;16110606;19;131001;-60
2023/09/12 18:49:16;;;;;;;33.63;16.15;;;;;;;24.41;53.29;101215.88;16108750;19;129650;-60
2023/09/12 18:54:38;;;;;;;35.28;14.57;;;;;;;24.44;53.48;101220.06;16107450;19;132178;-60
2023/09/12 19:00:01;;;;;;;36.58;14.30;;;;;;;24.46;53.47;101216.97;16108038;19;129649;-59
2023/09/12 19:05:23;;;;;;;32.47;14.15;;;;;;;24.48;53.49;101220.31;16115871;19;129706;-61
2023/09/12 19:10:47;;;;;;;29.48;13.65;;;;;;;24.49;53.39;101220.06;16117286;19;131469;-59
2023/09/12 19:16:09;;;;;;;31.73;12.38;;;;;;;24.49;53.56;101222.88;16106271;19;129897;-58
2023/09/12 19:21:31;;;;;;;34.05;13.35;;;;;;;24.52;53.56;101221.47;16114717;19;129511;-60
2023/09/12 19:26:53;;;;;;;31.02;11.75;;;;;;;24.53;53.58;101229.56;16115784;19;129784;-61
2023/09/12 19:32:15;;;;;;;41.70;13.32;;;;;;;24.54;53.48;101224.81;16110231;19;129680;-59
2023/09/12 19:37:38;;;;;;;23.50;11.35;;;;;;;24.54;53.39;101224.81;16113804;19;129053;-57
2023/09/12 19:43:00;;;;;;;26.70;11.50;;;;;;;24.55;53.87;101224.53;16111942;19;131572;-60
2023/09/12 19:48:22;;;;;;;24.83;11.02;;;;;;;24.57;53.52;101224.22;16110709;19;131582;-57
2023/09/12 19:53:44;;;;;;;32.15;11.57;;;;;;;24.57;53.79;101224.22;16107410;19;130052;-60
2023/09/12 19:59:07;;;;;;;29.83;10.82;;;;;;;24.57;54.05;101224.22;16110042;19;129660;-59
2023/09/12 20:04:30;;;;;;;22.52;10.30;;;;;;;24.58;53.63;101225.91;16112097;19;129436;-61
2023/09/12 20:09:55;;;;;;;20.35;10.07;;;;;;;24.58;53.73;101237.09;16112220;19;129684;-59
2023/09/12 20:15:19;;;;;;;17.02;9.38;;;;;;;24.58;53.52;101232.38;16124918;19;130700;-64
2023/09/12 20:20:44;;;;;;;26.60;10.63;;;;;;;24.60;54.02;101225.66;16121770;19;130258;-58
2023/09/12 20:26:09;;;;;;;41.88;11.15;;;;;;;24.58;53.46;101229.56;16122163;19;131378;-64
2023/09/12 20:31:31;;;;;;;30.38;10.95;;;;;;;24.54;54.00;101216.44;16121904;19;133400;-67
2023/09/12 20:36:56;;;;;;;27.83;11.10;;;;;;;24.52;54.07;101218.66;16124485;19;130058;-60
2023/09/12 20:42:18;;;;;;;;;;;;;;;24.46;54.22;101211.38;16123763;19;129396;-63
2023/09/12 20:47:40;;;;;;;28.40;11.45;;;;;;;24.47;54.21;101221.44;16122363;19;131006;-60
2023/09/12 20:53:03;;;;;;;23.15;9.77;;;;;;;24.45;54.02;101227.31;16124162;19;129563;-60
2023/09/12 20:58:28;;;;;;;18.98;9.38;;;;;;;24.42;53.97;101236.28;16120171;19;130738;-60
2023/09/12 21:03:50;;;;;;;20.13;9.13;;;;;;;24.41;54.56;101235.44;16123584;19;129460;-59
2023/09/12 21:09:15;;;;;;;17.77;9.18;;;;;;;24.40;54.29;101247.75;16125044;19;129590;-60
2023/09/12 21:14:36;;;;;;;16.97;9.10;;;;;;;24.39;54.20;101248.00;16122480;19;132169;-59
2023/09/12 21:19:58;;;;;;;16.33;9.13;;;;;;;24.39;54.47;101253.59;16125052;19;129671;-58
2023/09/12 21:25:21;;;;;;;17.50;8.85;;;;;;;24.38;54.63;101260.31;16119756;19;129680;-58
2023/09/12 21:30:43;;;;;;;14.52;9.02;;;;;;;24.36;54.70;101251.38;16174327;19;130158;-57
2023/09/12 21:36:05;;;;;;;13.45;9.48;;;;;;;24.35;54.65;101255.28;16191903;19;129606;-57
2023/09/12 21:41:27;;;;;;;15.50;9.50;;;;;;;24.35;54.56;101255.28;16193891;19;128784;-57
2023/09/12 21:46:48;;;;;;;13.25;8.95;;;;;;;24.35;54.91;101258.09;16189436;19;130650;-58
2023/09/12 21:52:11;;;;;;;12.98;8.82;;;;;;;24.35;54.76;101260.88;16189594;19;128554;-58
2023/09/12 21:57:34;;;;;;;10.27;7.90;;;;;;;24.34;54.83;101259.19;16191083;19;129340;-60
2023/09/12 22:02:57;;;;;;;11.88;8.32;;;;;;;24.33;54.67;101257.53;16188392;19;128870;-57
2023/09/12 22:08:19;;;;;;;11.02;8.18;;;;;;;24.32;54.65;101255.84;16173394;19;129115;-59
2023/09/12 22:13:41;;;;;;;12.32;8.25;;;;;;;24.31;54.66;101252.19;16189185;19;129111;-55
2023/09/12 22:19:04;;;;;;;13.63;8.52;;;;;;;24.30;54.91;101258.06;16152406;19;130500;-59
2023/09/12 22:24:26;;;;;;;11.27;7.78;;;;;;;24.30;54.82;101264.50;16133530;19;132936;-59
2023/09/12 22:29:48;;;;;;;10.50;7.25;;;;;;;24.29;54.67;101261.97;16133117;19;129561;-59
2023/09/12 22:35:10;;;;;;;9.80;7.60;;;;;;;24.28;54.95;101266.75;16134533;19;129635;-59
2023/09/12 22:40:32;;;;;;;10.25;7.95;;;;;;;24.27;55.00;101265.06;16117909;19;129650;-59
2023/09/12 22:45:55;;;;;;;9.60;7.15;;;;;;;24.27;54.90;101277.06;16116466;19;130284;-60
2023/09/12 22:51:17;;;;;;;10.70;7.10;;;;;;;24.26;54.82;101278.19;16113027;19;129364;-59
2023/09/12 22:56:39;;;;;;;11.38;7.07;;;;;;;24.26;54.87;101275.38;16106083;19;130145;-60
2023/09/12 23:02:02;;;;;;;9.82;7.53;;;;;;;24.24;55.20;101277.66;16110606;19;129809;-60
2023/09/12 23:07:24;;;;;;;9.18;7.05;;;;;;;24.25;54.97;101272.88;16109637;19;130208;-61
2023/09/12 23:12:46;;;;;;;8.02;6.47;;;;;;;24.24;55.27;101283.22;16114797;19;130101;-60
2023/09/12 23:18:11;;;;;;;10.02;7.20;;;;;;;24.23;54.99;101270.34;16113675;19;130295;-60
2023/09/12 23:23:36;;;;;;;8.98;7.00;;;;;;;24.22;55.26;101279.84;16116282;19;129438;-60
2023/09/12 23:28:58;;;;;;;8.70;6.30;;;;;;;24.22;54.98;101268.66;16108094;19;130241;-62
2023/09/12 23:34:20;;;;;;;6.95;6.22;;;;;;;24.20;55.25;101273.69;16110458;19;129526;-61
2023/09/12 23:39:42;;;;;;;8.82;7.18;;;;;;;24.20;55.12;101278.41;16117157;19;129855;-61
2023/09/12 23:45:05;;;;;;;8.77;6.20;;;;;;;24.19;55.12;101277.59;16116496;19;129322;-61
2023/09/12 23:50:29;;;;;;;8.65;7.03;;;;;;;24.19;55.14;101273.94;16130549;19;130162;-61
2023/09/12 23:55:57;;;;;;;8.20;6.20;;;;;;;24.20;55.12;101272.81;16127273;19;129346;-62
